Airfield :
LOGIN :

Register | Disclaimer

   EN    FR    IT 

 










Legend :    VFR   Marginal VFR   IFR   Intensive IFR   Very Intensive IFR
Visi :
Ceiling :
>= 8 km
>= 3000ft
5 to 8 km
1000 to 3000 ft
1500m to 5 km
500 to 1000 ft
800 to 1500m
200 to 500 ft
< 800m
< 200 ft
Symbols :   Thunderstorms  Fog  Heavy snow  Heavy precipitations  Wind > 20 kt
SIGMETs :     Misc.  Thunderstorms  Icing  Turbulence  Mountain Waves  Volcanic Ashes







- Airport Elevation : 309 ft
- IATA code : FNI
- Download approach charts


LFTW - Nîmes Garons

CURRENT METAR :
  • 160530Z AUTO 04003KT CAVOK 01/M00 Q1030 TEMPO 0200 FG VV///

EXPIRED METARs :
  • 160500Z AUTO VRB01KT 9000 NSC 01/M00 Q1030 TEMPO 0200 FG VV///
  • 160430Z AUTO 35003KT 9000 NSC 01/M01 Q1030 TEMPO 0200 FG VV///
  • 160400Z AUTO 35002KT CAVOK 01/M00 Q1030 TEMPO 0200 FG VV///
  • 160330Z AUTO 36003KT CAVOK 02/01 Q1029 TEMPO 0200 FG VV///
  • 160300Z AUTO 04003KT 7000 NSC 01/00 Q1029 TEMPO 0200 FG VV///

TAF TAF LFTW
Valid from the 16 at 03:00 until the 17 at 03:00 UTC


160200Z 1603/1703 VRB02KT CAVOK
TEMPO 1603/1609 1200 BR
PROB30
TEMPO 1603/1608 0200 FG VV///
BECMG 1613/1615 18008KT
BECMG 1620/1622 BKN010
No reported NOTAMs for that airfield.



MET'MAP, your aeronautical weather chart ! - Copyright ORBIFLY December 2007 - Disclaimer

ORBIFLY MET'MAP TEAM :

Programming & Development : Alexandra Zaïnal
Concept & Development : Baudouin d'Aumeries
Co-Development & Prog : Marc-Olivier Méhu
Technical & hardware support : Manuel Goepfert

Contact : metmap@orbifly.com




SOURCES & CREDITS :

   NOAA